sensor_id;sensor_type;location;lat;lon;timestamp;P1;durP1;ratioP1;P2;durP2;ratioP2
75035;SDS011;64247;51.540;5.854;2023-01-20T00:00:37;54.58;;;22.50;;
75035;SDS011;64247;51.540;5.854;2023-01-20T00:02:40;53.60;;;22.95;;
75035;SDS011;64247;51.540;5.854;2023-01-20T00:04:47;53.42;;;22.23;;
75035;SDS011;64247;51.540;5.854;2023-01-20T00:06:51;41.28;;;17.40;;
75035;SDS011;64247;51.540;5.854;2023-01-20T00:08:55;50.17;;;19.45;;
75035;SDS011;64247;51.540;5.854;2023-01-20T00:11:07;50.90;;;20.52;;
75035;SDS011;64247;51.540;5.854;2023-01-20T00:13:11;36.45;;;16.85;;
75035;SDS011;64247;51.540;5.854;2023-01-20T00:15:13;48.00;;;18.27;;
75035;SDS011;64247;51.540;5.854;2023-01-20T00:17:14;49.35;;;19.52;;
75035;SDS011;64247;51.540;5.854;2023-01-20T00:19:15;57.72;;;21.67;;
75035;SDS011;64247;51.540;5.854;2023-01-20T00:21:17;51.72;;;21.00;;
75035;SDS011;64247;51.540;5.854;2023-01-20T00:23:18;54.15;;;22.23;;
75035;SDS011;64247;51.540;5.854;2023-01-20T00:25:19;37.60;;;15.43;;
75035;SDS011;64247;51.540;5.854;2023-01-20T00:27:20;51.83;;;21.05;;
75035;SDS011;64247;51.540;5.854;2023-01-20T00:29:21;53.85;;;21.48;;
75035;SDS011;64247;51.540;5.854;2023-01-20T00:31:26;50.10;;;20.55;;
75035;SDS011;64247;51.540;5.854;2023-01-20T00:33:31;40.47;;;16.42;;
75035;SDS011;64247;51.540;5.854;2023-01-20T00:37:33;62.70;;;24.98;;
75035;SDS011;64247;51.540;5.854;2023-01-20T00:41:35;39.38;;;16.77;;
75035;SDS011;64247;51.540;5.854;2023-01-20T00:43:36;40.65;;;17.83;;
75035;SDS011;64247;51.540;5.854;2023-01-20T00:45:37;29.17;;;13.85;;
75035;SDS011;64247;51.540;5.854;2023-01-20T00:47:40;38.38;;;16.05;;
75035;SDS011;64247;51.540;5.854;2023-01-20T00:51:41;42.70;;;16.52;;
75035;SDS011;64247;51.540;5.854;2023-01-20T00:53:42;39.50;;;17.33;;
75035;SDS011;64247;51.540;5.854;2023-01-20T00:57:45;19.20;;;8.85;;
75035;SDS011;64247;51.540;5.854;2023-01-20T01:01:46;20.45;;;8.80;;
75035;SDS011;64247;51.540;5.854;2023-01-20T01:03:47;20.67;;;9.35;;
75035;SDS011;64247;51.540;5.854;2023-01-20T01:07:49;23.00;;;10.18;;
75035;SDS011;64247;51.540;5.854;2023-01-20T01:09:50;33.50;;;13.52;;
75035;SDS011;64247;51.540;5.854;2023-01-20T01:11:52;28.20;;;13.50;;
75035;SDS011;64247;51.540;5.854;2023-01-20T01:13:53;26.00;;;11.60;;
75035;SDS011;64247;51.540;5.854;2023-01-20T01:15:56;26.42;;;10.98;;
75035;SDS011;64247;51.540;5.854;2023-01-20T01:19:59;34.92;;;13.88;;
75035;SDS011;64247;51.540;5.854;2023-01-20T01:24:00;37.80;;;12.70;;
75035;SDS011;64247;51.540;5.854;2023-01-20T01:28:03;25.60;;;10.65;;
75035;SDS011;64247;51.540;5.854;2023-01-20T01:30:04;38.58;;;14.07;;
75035;SDS011;64247;51.540;5.854;2023-01-20T01:32:06;18.88;;;8.35;;
75035;SDS011;64247;51.540;5.854;2023-01-20T01:34:07;34.13;;;13.27;;
75035;SDS011;64247;51.540;5.854;2023-01-20T01:38:13;32.63;;;12.82;;
75035;SDS011;64247;51.540;5.854;2023-01-20T01:40:14;35.20;;;14.27;;
75035;SDS011;64247;51.540;5.854;2023-01-20T01:42:16;56.35;;;20.27;;
75035;SDS011;64247;51.540;5.854;2023-01-20T01:44:23;46.35;;;18.40;;
75035;SDS011;64247;51.540;5.854;2023-01-20T01:46:27;30.02;;;12.32;;
75035;SDS011;64247;51.540;5.854;2023-01-20T01:48:35;45.97;;;18.95;;
75035;SDS011;64247;51.540;5.854;2023-01-20T01:50:50;31.25;;;11.40;;
75035;SDS011;64247;51.540;5.854;2023-01-20T01:53:26;31.70;;;12.38;;
75035;SDS011;64247;51.540;5.854;2023-01-20T01:55:33;23.73;;;9.00;;
75035;SDS011;64247;51.540;5.854;2023-01-20T01:57:43;21.20;;;10.30;;
75035;SDS011;64247;51.540;5.854;2023-01-20T01:59:46;22.98;;;9.27;;
75035;SDS011;64247;51.540;5.854;2023-01-20T02:01:49;27.15;;;11.63;;
75035;SDS011;64247;51.540;5.854;2023-01-20T02:03:56;26.30;;;11.45;;
75035;SDS011;64247;51.540;5.854;2023-01-20T02:06:08;32.28;;;13.65;;
75035;SDS011;64247;51.540;5.854;2023-01-20T02:08:11;23.90;;;9.98;;
75035;SDS011;64247;51.540;5.854;2023-01-20T02:12:16;20.48;;;8.75;;
75035;SDS011;64247;51.540;5.854;2023-01-20T02:14:23;15.75;;;6.88;;
75035;SDS011;64247;51.540;5.854;2023-01-20T02:17:02;30.52;;;12.20;;
75035;SDS011;64247;51.540;5.854;2023-01-20T02:19:37;29.60;;;10.93;;
75035;SDS011;64247;51.540;5.854;2023-01-20T02:22:37;27.25;;;10.38;;
75035;SDS011;64247;51.540;5.854;2023-01-20T02:25:17;30.63;;;12.63;;
75035;SDS011;64247;51.540;5.854;2023-01-20T02:28:05;32.95;;;14.27;;
75035;SDS011;64247;51.540;5.854;2023-01-20T02:33:43;23.35;;;9.88;;
75035;SDS011;64247;51.540;5.854;2023-01-20T02:36:43;41.40;;;14.52;;
75035;SDS011;64247;51.540;5.854;2023-01-20T02:38:55;52.63;;;19.13;;
75035;SDS011;64247;51.540;5.854;2023-01-20T02:41:39;22.85;;;10.40;;
75035;SDS011;64247;51.540;5.854;2023-01-20T02:50:51;30.85;;;10.38;;
75035;SDS011;64247;51.540;5.854;2023-01-20T02:54:17;25.95;;;7.97;;
75035;SDS011;64247;51.540;5.854;2023-01-20T02:57:29;37.95;;;13.52;;
75035;SDS011;64247;51.540;5.854;2023-01-20T03:00:20;39.05;;;12.55;;
75035;SDS011;64247;51.540;5.854;2023-01-20T03:02:31;25.92;;;10.77;;
75035;SDS011;64247;51.540;5.854;2023-01-20T03:04:56;52.40;;;19.90;;
75035;SDS011;64247;51.540;5.854;2023-01-20T03:07:08;42.00;;;15.80;;
75035;SDS011;64247;51.540;5.854;2023-01-20T03:09:12;30.15;;;11.80;;
75035;SDS011;64247;51.540;5.854;2023-01-20T03:11:20;36.75;;;13.00;;
75035;SDS011;64247;51.540;5.854;2023-01-20T03:16:10;33.80;;;13.43;;
75035;SDS011;64247;51.540;5.854;2023-01-20T03:18:32;8.40;;;4.13;;
75035;SDS011;64247;51.540;5.854;2023-01-20T03:20:34;48.28;;;16.67;;
75035;SDS011;64247;51.540;5.854;2023-01-20T03:22:36;31.08;;;12.23;;
75035;SDS011;64247;51.540;5.854;2023-01-20T03:24:37;36.75;;;11.93;;
75035;SDS011;64247;51.540;5.854;2023-01-20T03:26:43;41.45;;;12.75;;
75035;SDS011;64247;51.540;5.854;2023-01-20T03:28:45;19.40;;;8.50;;
75035;SDS011;64247;51.540;5.854;2023-01-20T03:30:48;33.85;;;10.27;;
75035;SDS011;64247;51.540;5.854;2023-01-20T03:32:49;26.33;;;9.88;;
75035;SDS011;64247;51.540;5.854;2023-01-20T03:34:53;21.60;;;9.95;;
75035;SDS011;64247;51.540;5.854;2023-01-20T03:36:56;34.60;;;13.95;;
75035;SDS011;64247;51.540;5.854;2023-01-20T03:39:00;26.80;;;12.30;;
75035;SDS011;64247;51.540;5.854;2023-01-20T03:41:13;22.05;;;8.63;;
75035;SDS011;64247;51.540;5.854;2023-01-20T03:43:48;41.42;;;14.88;;
75035;SDS011;64247;51.540;5.854;2023-01-20T03:46:18;33.08;;;11.57;;
75035;SDS011;64247;51.540;5.854;2023-01-20T03:48:51;45.28;;;16.63;;
75035;SDS011;64247;51.540;5.854;2023-01-20T03:54:11;34.83;;;13.13;;
75035;SDS011;64247;51.540;5.854;2023-01-20T03:56:24;44.28;;;15.50;;
75035;SDS011;64247;51.540;5.854;2023-01-20T03:58:53;50.20;;;20.13;;
75035;SDS011;64247;51.540;5.854;2023-01-20T04:00:59;36.22;;;14.98;;
75035;SDS011;64247;51.540;5.854;2023-01-20T04:03:10;52.28;;;18.27;;
75035;SDS011;64247;51.540;5.854;2023-01-20T04:05:18;48.63;;;16.60;;
75035;SDS011;64247;51.540;5.854;2023-01-20T04:07:21;49.67;;;17.50;;
75035;SDS011;64247;51.540;5.854;2023-01-20T04:09:28;31.80;;;9.80;;
75035;SDS011;64247;51.540;5.854;2023-01-20T04:11:37;30.50;;;12.77;;
75035;SDS011;64247;51.540;5.854;2023-01-20T04:13:39;40.35;;;16.75;;
75035;SDS011;64247;51.540;5.854;2023-01-20T04:17:43;31.15;;;10.25;;
75035;SDS011;64247;51.540;5.854;2023-01-20T04:19:44;40.55;;;14.80;;
75035;SDS011;64247;51.540;5.854;2023-01-20T04:21:49;43.60;;;12.63;;
75035;SDS011;64247;51.540;5.854;2023-01-20T04:26:54;27.58;;;9.77;;
75035;SDS011;64247;51.540;5.854;2023-01-20T04:28:55;21.60;;;8.88;;
75035;SDS011;64247;51.540;5.854;2023-01-20T04:32:56;34.35;;;12.13;;
75035;SDS011;64247;51.540;5.854;2023-01-20T04:34:57;20.70;;;9.00;;
75035;SDS011;64247;51.540;5.854;2023-01-20T04:36:58;32.35;;;13.38;;
75035;SDS011;64247;51.540;5.854;2023-01-20T04:38:59;43.97;;;14.60;;
75035;SDS011;64247;51.540;5.854;2023-01-20T04:41:00;33.90;;;12.57;;
75035;SDS011;64247;51.540;5.854;2023-01-20T04:43:01;44.83;;;17.67;;
75035;SDS011;64247;51.540;5.854;2023-01-20T04:45:03;45.95;;;16.50;;
75035;SDS011;64247;51.540;5.854;2023-01-20T04:47:04;38.40;;;13.93;;
75035;SDS011;64247;51.540;5.854;2023-01-20T04:51:06;24.38;;;11.57;;
75035;SDS011;64247;51.540;5.854;2023-01-20T04:53:11;47.45;;;16.45;;
75035;SDS011;64247;51.540;5.854;2023-01-20T04:55:16;42.10;;;17.17;;
75035;SDS011;64247;51.540;5.854;2023-01-20T04:59:17;45.13;;;16.65;;
75035;SDS011;64247;51.540;5.854;2023-01-20T05:01:18;47.30;;;16.10;;
75035;SDS011;64247;51.540;5.854;2023-01-20T05:05:20;60.15;;;22.08;;
75035;SDS011;64247;51.540;5.854;2023-01-20T05:07:21;51.53;;;17.33;;
75035;SDS011;64247;51.540;5.854;2023-01-20T05:11:23;52.83;;;17.08;;
75035;SDS011;64247;51.540;5.854;2023-01-20T05:15:25;35.53;;;11.95;;
75035;SDS011;64247;51.540;5.854;2023-01-20T05:17:26;51.85;;;16.55;;
75035;SDS011;64247;51.540;5.854;2023-01-20T05:21:28;47.67;;;16.65;;
75035;SDS011;64247;51.540;5.854;2023-01-20T05:23:29;57.42;;;18.45;;
75035;SDS011;64247;51.540;5.854;2023-01-20T05:27:34;45.53;;;16.27;;
75035;SDS011;64247;51.540;5.854;2023-01-20T05:29:36;47.03;;;14.45;;
75035;SDS011;64247;51.540;5.854;2023-01-20T05:33:42;50.20;;;15.65;;
75035;SDS011;64247;51.540;5.854;2023-01-20T05:35:44;57.42;;;18.73;;
75035;SDS011;64247;51.540;5.854;2023-01-20T05:39:45;44.28;;;14.63;;
75035;SDS011;64247;51.540;5.854;2023-01-20T05:41:46;37.65;;;14.20;;
75035;SDS011;64247;51.540;5.854;2023-01-20T05:43:47;55.28;;;19.02;;
75035;SDS011;64247;51.540;5.854;2023-01-20T05:45:52;39.38;;;13.77;;
75035;SDS011;64247;51.540;5.854;2023-01-20T05:49:58;36.33;;;13.05;;
75035;SDS011;64247;51.540;5.854;2023-01-20T05:54:00;58.85;;;18.80;;
75035;SDS011;64247;51.540;5.854;2023-01-20T05:56:01;47.22;;;15.07;;
75035;SDS011;64247;51.540;5.854;2023-01-20T05:58:05;59.40;;;19.83;;
75035;SDS011;64247;51.540;5.854;2023-01-20T06:00:07;54.83;;;19.73;;
75035;SDS011;64247;51.540;5.854;2023-01-20T06:02:09;58.45;;;26.80;;
75035;SDS011;64247;51.540;5.854;2023-01-20T06:04:12;59.08;;;22.38;;
75035;SDS011;64247;51.540;5.854;2023-01-20T06:08:16;52.80;;;18.27;;
75035;SDS011;64247;51.540;5.854;2023-01-20T06:12:18;41.08;;;16.25;;
75035;SDS011;64247;51.540;5.854;2023-01-20T06:14:19;54.78;;;18.63;;
75035;SDS011;64247;51.540;5.854;2023-01-20T06:16:20;41.08;;;15.90;;
75035;SDS011;64247;51.540;5.854;2023-01-20T06:20:22;56.38;;;19.63;;
75035;SDS011;64247;51.540;5.854;2023-01-20T06:24:25;48.50;;;16.60;;
75035;SDS011;64247;51.540;5.854;2023-01-20T06:28:27;58.40;;;21.83;;
75035;SDS011;64247;51.540;5.854;2023-01-20T06:30:28;43.60;;;14.85;;
75035;SDS011;64247;51.540;5.854;2023-01-20T06:32:29;36.05;;;12.80;;
75035;SDS011;64247;51.540;5.854;2023-01-20T06:34:30;65.63;;;23.77;;
75035;SDS011;64247;51.540;5.854;2023-01-20T06:38:33;55.38;;;19.13;;
75035;SDS011;64247;51.540;5.854;2023-01-20T06:40:35;55.58;;;20.80;;
75035;SDS011;64247;51.540;5.854;2023-01-20T06:42:36;56.78;;;20.20;;
75035;SDS011;64247;51.540;5.854;2023-01-20T06:44:37;54.67;;;17.50;;
75035;SDS011;64247;51.540;5.854;2023-01-20T06:46:37;54.65;;;18.77;;
75035;SDS011;64247;51.540;5.854;2023-01-20T06:48:39;59.63;;;21.38;;
75035;SDS011;64247;51.540;5.854;2023-01-20T06:50:41;46.50;;;17.10;;
75035;SDS011;64247;51.540;5.854;2023-01-20T06:52:42;51.90;;;18.42;;
75035;SDS011;64247;51.540;5.854;2023-01-20T06:54:43;62.72;;;21.27;;
75035;SDS011;64247;51.540;5.854;2023-01-20T06:56:44;62.10;;;23.85;;
75035;SDS011;64247;51.540;5.854;2023-01-20T06:58:45;69.97;;;26.58;;
75035;SDS011;64247;51.540;5.854;2023-01-20T07:00:46;41.08;;;15.05;;
75035;SDS011;64247;51.540;5.854;2023-01-20T07:02:47;59.85;;;23.70;;
75035;SDS011;64247;51.540;5.854;2023-01-20T07:04:50;62.70;;;24.52;;
75035;SDS011;64247;51.540;5.854;2023-01-20T07:06:52;56.42;;;22.65;;
75035;SDS011;64247;51.540;5.854;2023-01-20T07:10:55;47.75;;;17.45;;
75035;SDS011;64247;51.540;5.854;2023-01-20T07:14:57;47.33;;;16.98;;
75035;SDS011;64247;51.540;5.854;2023-01-20T07:16:57;38.35;;;14.23;;
75035;SDS011;64247;51.540;5.854;2023-01-20T07:18:58;54.25;;;20.75;;
75035;SDS011;64247;51.540;5.854;2023-01-20T07:20:59;32.63;;;11.95;;
75035;SDS011;64247;51.540;5.854;2023-01-20T07:23:02;46.45;;;17.23;;
75035;SDS011;64247;51.540;5.854;2023-01-20T07:27:04;44.92;;;15.70;;
75035;SDS011;64247;51.540;5.854;2023-01-20T07:31:09;51.03;;;19.02;;
75035;SDS011;64247;51.540;5.854;2023-01-20T07:33:17;30.65;;;11.90;;
75035;SDS011;64247;51.540;5.854;2023-01-20T07:37:19;32.85;;;12.50;;
75035;SDS011;64247;51.540;5.854;2023-01-20T07:39:20;29.80;;;12.18;;
75035;SDS011;64247;51.540;5.854;2023-01-20T07:43:23;35.03;;;14.93;;
75035;SDS011;64247;51.540;5.854;2023-01-20T07:45:24;37.78;;;15.65;;
75035;SDS011;64247;51.540;5.854;2023-01-20T07:49:26;25.02;;;9.63;;
75035;SDS011;64247;51.540;5.854;2023-01-20T07:51:28;35.20;;;13.07;;
75035;SDS011;64247;51.540;5.854;2023-01-20T07:55:35;27.73;;;10.18;;
75035;SDS011;64247;51.540;5.854;2023-01-20T07:59:37;45.65;;;15.95;;
75035;SDS011;64247;51.540;5.854;2023-01-20T08:01:38;30.00;;;11.70;;
75035;SDS011;64247;51.540;5.854;2023-01-20T08:05:40;17.58;;;6.93;;
75035;SDS011;64247;51.540;5.854;2023-01-20T08:07:41;24.20;;;9.48;;
75035;SDS011;64247;51.540;5.854;2023-01-20T08:09:42;22.63;;;8.32;;
75035;SDS011;64247;51.540;5.854;2023-01-20T08:13:44;30.92;;;10.65;;
75035;SDS011;64247;51.540;5.854;2023-01-20T08:15:45;29.63;;;12.05;;
75035;SDS011;64247;51.540;5.854;2023-01-20T08:19:53;42.88;;;17.17;;
75035;SDS011;64247;51.540;5.854;2023-01-20T08:23:55;33.72;;;14.52;;
75035;SDS011;64247;51.540;5.854;2023-01-20T08:25:59;42.63;;;16.63;;
75035;SDS011;64247;51.540;5.854;2023-01-20T08:28:06;42.58;;;17.63;;
75035;SDS011;64247;51.540;5.854;2023-01-20T08:32:08;51.05;;;21.25;;
75035;SDS011;64247;51.540;5.854;2023-01-20T08:36:16;34.40;;;14.65;;
75035;SDS011;64247;51.540;5.854;2023-01-20T08:38:23;39.80;;;16.05;;
75035;SDS011;64247;51.540;5.854;2023-01-20T08:40:24;31.75;;;12.30;;
75035;SDS011;64247;51.540;5.854;2023-01-20T08:44:26;23.27;;;9.93;;
75035;SDS011;64247;51.540;5.854;2023-01-20T08:46:28;30.48;;;13.07;;
75035;SDS011;64247;51.540;5.854;2023-01-20T08:48:29;30.33;;;10.32;;
75035;SDS011;64247;51.540;5.854;2023-01-20T08:52:34;31.67;;;13.80;;
75035;SDS011;64247;51.540;5.854;2023-01-20T08:56:36;28.88;;;12.70;;
75035;SDS011;64247;51.540;5.854;2023-01-20T08:58:37;33.33;;;15.18;;
75035;SDS011;64247;51.540;5.854;2023-01-20T09:00:38;34.60;;;13.40;;
75035;SDS011;64247;51.540;5.854;2023-01-20T09:04:40;36.20;;;14.93;;
75035;SDS011;64247;51.540;5.854;2023-01-20T09:08:45;32.88;;;12.45;;
75035;SDS011;64247;51.540;5.854;2023-01-20T09:10:47;43.47;;;20.52;;
75035;SDS011;64247;51.540;5.854;2023-01-20T09:14:48;32.63;;;13.88;;
75035;SDS011;64247;51.540;5.854;2023-01-20T09:18:51;47.20;;;17.65;;
75035;SDS011;64247;51.540;5.854;2023-01-20T09:20:52;37.35;;;15.50;;
75035;SDS011;64247;51.540;5.854;2023-01-20T09:24:54;43.28;;;13.55;;
75035;SDS011;64247;51.540;5.854;2023-01-20T09:26:55;48.55;;;21.42;;
75035;SDS011;64247;51.540;5.854;2023-01-20T09:28:56;37.38;;;14.18;;
75035;SDS011;64247;51.540;5.854;2023-01-20T09:30:57;43.58;;;17.88;;
75035;SDS011;64247;51.540;5.854;2023-01-20T09:33:05;51.90;;;22.42;;
75035;SDS011;64247;51.540;5.854;2023-01-20T09:35:06;38.35;;;16.52;;
75035;SDS011;64247;51.540;5.854;2023-01-20T09:37:07;43.55;;;17.15;;
75035;SDS011;64247;51.540;5.854;2023-01-20T09:39:26;38.85;;;14.65;;
75035;SDS011;64247;51.540;5.854;2023-01-20T09:41:47;30.67;;;12.85;;
75035;SDS011;64247;51.540;5.854;2023-01-20T09:44:17;31.52;;;12.30;;
75035;SDS011;64247;51.540;5.854;2023-01-20T09:49:51;40.03;;;18.02;;
75035;SDS011;64247;51.540;5.854;2023-01-20T09:52:55;27.70;;;11.15;;
75035;SDS011;64247;51.540;5.854;2023-01-20T09:59:09;34.40;;;14.70;;
75035;SDS011;64247;51.540;5.854;2023-01-20T10:08:58;25.00;;;10.85;;
75035;SDS011;64247;51.540;5.854;2023-01-20T10:11:06;20.15;;;8.30;;
75035;SDS011;64247;51.540;5.854;2023-01-20T10:15:52;17.38;;;8.43;;
75035;SDS011;64247;51.540;5.854;2023-01-20T10:21:51;25.58;;;11.98;;
75035;SDS011;64247;51.540;5.854;2023-01-20T10:27:24;19.30;;;9.07;;
75035;SDS011;64247;51.540;5.854;2023-01-20T10:29:37;25.65;;;10.15;;
75035;SDS011;64247;51.540;5.854;2023-01-20T10:31:58;11.73;;;6.05;;
75035;SDS011;64247;51.540;5.854;2023-01-20T10:34:06;16.75;;;8.00;;
75035;SDS011;64247;51.540;5.854;2023-01-20T10:36:23;15.70;;;6.50;;
75035;SDS011;64247;51.540;5.854;2023-01-20T10:41:09;11.63;;;5.15;;
75035;SDS011;64247;51.540;5.854;2023-01-20T10:43:36;13.10;;;6.88;;
75035;SDS011;64247;51.540;5.854;2023-01-20T10:48:58;9.25;;;5.28;;
75035;SDS011;64247;51.540;5.854;2023-01-20T10:51:46;11.38;;;5.75;;
75035;SDS011;64247;51.540;5.854;2023-01-20T10:57:32;14.45;;;7.40;;
75035;SDS011;64247;51.540;5.854;2023-01-20T10:59:48;20.38;;;7.57;;
75035;SDS011;64247;51.540;5.854;2023-01-20T11:01:55;17.30;;;7.60;;
75035;SDS011;64247;51.540;5.854;2023-01-20T11:04:15;17.50;;;7.68;;
75035;SDS011;64247;51.540;5.854;2023-01-20T11:06:21;19.70;;;8.90;;
75035;SDS011;64247;51.540;5.854;2023-01-20T11:08:28;16.27;;;9.35;;
75035;SDS011;64247;51.540;5.854;2023-01-20T11:10:31;16.40;;;7.65;;
75035;SDS011;64247;51.540;5.854;2023-01-20T11:12:32;10.02;;;5.90;;
75035;SDS011;64247;51.540;5.854;2023-01-20T11:14:41;9.73;;;6.40;;
75035;SDS011;64247;51.540;5.854;2023-01-20T11:16:43;14.27;;;8.30;;
75035;SDS011;64247;51.540;5.854;2023-01-20T11:18:57;9.15;;;4.32;;
75035;SDS011;64247;51.540;5.854;2023-01-20T11:21:06;17.10;;;9.07;;
75035;SDS011;64247;51.540;5.854;2023-01-20T11:23:21;19.05;;;8.18;;
75035;SDS011;64247;51.540;5.854;2023-01-20T11:25:53;13.32;;;7.53;;
75035;SDS011;64247;51.540;5.854;2023-01-20T11:28:18;12.00;;;5.95;;
75035;SDS011;64247;51.540;5.854;2023-01-20T11:30:26;11.63;;;5.97;;
75035;SDS011;64247;51.540;5.854;2023-01-20T11:32:33;9.90;;;4.88;;
75035;SDS011;64247;51.540;5.854;2023-01-20T11:34:36;16.73;;;7.40;;
75035;SDS011;64247;51.540;5.854;2023-01-20T11:36:49;8.98;;;4.97;;
75035;SDS011;64247;51.540;5.854;2023-01-20T11:39:28;6.30;;;3.33;;
75035;SDS011;64247;51.540;5.854;2023-01-20T11:41:41;14.52;;;7.07;;
75035;SDS011;64247;51.540;5.854;2023-01-20T11:45:43;4.95;;;2.63;;
75035;SDS011;64247;51.540;5.854;2023-01-20T11:47:44;11.88;;;6.40;;
75035;SDS011;64247;51.540;5.854;2023-01-20T11:52:49;15.82;;;7.60;;
75035;SDS011;64247;51.540;5.854;2023-01-20T11:57:10;14.52;;;6.22;;
75035;SDS011;64247;51.540;5.854;2023-01-20T11:59:21;10.82;;;6.63;;
75035;SDS011;64247;51.540;5.854;2023-01-20T12:07:29;11.50;;;6.03;;
75035;SDS011;64247;51.540;5.854;2023-01-20T12:09:44;12.25;;;6.30;;
75035;SDS011;64247;51.540;5.854;2023-01-20T12:11:57;13.50;;;6.32;;
75035;SDS011;64247;51.540;5.854;2023-01-20T12:14:15;13.27;;;6.07;;
75035;SDS011;64247;51.540;5.854;2023-01-20T12:16:24;16.80;;;8.43;;
75035;SDS011;64247;51.540;5.854;2023-01-20T12:18:34;13.93;;;7.20;;
75035;SDS011;64247;51.540;5.854;2023-01-20T12:26:05;12.70;;;5.85;;
75035;SDS011;64247;51.540;5.854;2023-01-20T12:28:16;13.57;;;6.80;;
75035;SDS011;64247;51.540;5.854;2023-01-20T12:31:00;13.40;;;7.10;;
75035;SDS011;64247;51.540;5.854;2023-01-20T12:33:04;12.95;;;6.18;;
75035;SDS011;64247;51.540;5.854;2023-01-20T12:35:40;6.75;;;4.05;;
75035;SDS011;64247;51.540;5.854;2023-01-20T12:38:10;12.15;;;6.57;;
75035;SDS011;64247;51.540;5.854;2023-01-20T12:40:34;9.35;;;6.03;;
75035;SDS011;64247;51.540;5.854;2023-01-20T12:43:02;13.25;;;7.50;;
75035;SDS011;64247;51.540;5.854;2023-01-20T12:48:44;11.82;;;5.40;;
75035;SDS011;64247;51.540;5.854;2023-01-20T13:02:40;10.20;;;4.53;;
75035;SDS011;64247;51.540;5.854;2023-01-20T13:14:07;12.55;;;5.60;;
75035;SDS011;64247;51.540;5.854;2023-01-20T13:20:29;25.13;;;12.90;;
75035;SDS011;64247;51.540;5.854;2023-01-20T13:22:30;16.35;;;8.65;;
75035;SDS011;64247;51.540;5.854;2023-01-20T13:24:32;11.52;;;4.75;;
75035;SDS011;64247;51.540;5.854;2023-01-20T13:26:34;20.60;;;10.60;;
75035;SDS011;64247;51.540;5.854;2023-01-20T13:28:36;14.63;;;7.32;;
75035;SDS011;64247;51.540;5.854;2023-01-20T13:33:02;20.35;;;9.10;;
75035;SDS011;64247;51.540;5.854;2023-01-20T13:37:49;14.23;;;7.22;;
75035;SDS011;64247;51.540;5.854;2023-01-20T13:39:54;18.90;;;9.43;;
75035;SDS011;64247;51.540;5.854;2023-01-20T13:41:59;23.20;;;11.63;;
75035;SDS011;64247;51.540;5.854;2023-01-20T13:44:00;18.75;;;9.15;;
75035;SDS011;64247;51.540;5.854;2023-01-20T13:46:42;14.85;;;7.07;;
75035;SDS011;64247;51.540;5.854;2023-01-20T13:53:49;13.25;;;6.80;;
75035;SDS011;64247;51.540;5.854;2023-01-20T13:57:53;6.65;;;3.63;;
75035;SDS011;64247;51.540;5.854;2023-01-20T13:59:56;8.88;;;5.55;;
75035;SDS011;64247;51.540;5.854;2023-01-20T14:02:07;13.90;;;6.75;;
75035;SDS011;64247;51.540;5.854;2023-01-20T14:04:20;16.80;;;8.15;;
75035;SDS011;64247;51.540;5.854;2023-01-20T14:06:21;12.50;;;6.57;;
75035;SDS011;64247;51.540;5.854;2023-01-20T14:08:26;17.83;;;8.85;;
75035;SDS011;64247;51.540;5.854;2023-01-20T14:10:38;12.07;;;7.85;;
75035;SDS011;64247;51.540;5.854;2023-01-20T14:14:40;7.93;;;4.05;;
75035;SDS011;64247;51.540;5.854;2023-01-20T14:16:43;13.75;;;6.70;;
75035;SDS011;64247;51.540;5.854;2023-01-20T14:18:44;11.57;;;4.75;;
75035;SDS011;64247;51.540;5.854;2023-01-20T14:23:32;8.43;;;5.05;;
75035;SDS011;64247;51.540;5.854;2023-01-20T14:25:38;13.23;;;6.00;;
75035;SDS011;64247;51.540;5.854;2023-01-20T14:29:44;11.90;;;5.00;;
75035;SDS011;64247;51.540;5.854;2023-01-20T14:31:47;4.78;;;2.88;;
75035;SDS011;64247;51.540;5.854;2023-01-20T14:33:56;5.57;;;3.00;;
75035;SDS011;64247;51.540;5.854;2023-01-20T14:36:22;6.80;;;4.05;;
75035;SDS011;64247;51.540;5.854;2023-01-20T14:38:28;7.10;;;4.22;;
75035;SDS011;64247;51.540;5.854;2023-01-20T14:42:35;5.10;;;2.30;;
75035;SDS011;64247;51.540;5.854;2023-01-20T14:44:37;4.55;;;3.40;;
75035;SDS011;64247;51.540;5.854;2023-01-20T14:46:39;8.77;;;5.18;;
75035;SDS011;64247;51.540;5.854;2023-01-20T14:48:41;9.52;;;3.38;;
75035;SDS011;64247;51.540;5.854;2023-01-20T14:50:44;11.40;;;6.07;;
75035;SDS011;64247;51.540;5.854;2023-01-20T14:52:51;7.05;;;4.53;;
75035;SDS011;64247;51.540;5.854;2023-01-20T14:56:56;6.00;;;3.78;;
75035;SDS011;64247;51.540;5.854;2023-01-20T14:58:59;5.60;;;4.22;;
75035;SDS011;64247;51.540;5.854;2023-01-20T15:01:01;7.13;;;4.55;;
75035;SDS011;64247;51.540;5.854;2023-01-20T15:03:07;7.97;;;5.40;;
75035;SDS011;64247;51.540;5.854;2023-01-20T15:05:31;6.28;;;3.72;;
75035;SDS011;64247;51.540;5.854;2023-01-20T15:07:35;7.60;;;5.03;;
75035;SDS011;64247;51.540;5.854;2023-01-20T15:09:40;10.18;;;6.18;;
75035;SDS011;64247;51.540;5.854;2023-01-20T15:11:42;9.82;;;4.18;;
75035;SDS011;64247;51.540;5.854;2023-01-20T15:21:29;4.60;;;2.75;;
75035;SDS011;64247;51.540;5.854;2023-01-20T15:23:31;5.88;;;3.33;;
75035;SDS011;64247;51.540;5.854;2023-01-20T15:25:36;5.35;;;3.88;;
75035;SDS011;64247;51.540;5.854;2023-01-20T15:27:37;4.50;;;2.83;;
75035;SDS011;64247;51.540;5.854;2023-01-20T15:29:38;7.60;;;3.58;;
75035;SDS011;64247;51.540;5.854;2023-01-20T15:31:39;4.65;;;2.65;;
75035;SDS011;64247;51.540;5.854;2023-01-20T15:35:42;7.05;;;3.67;;
75035;SDS011;64247;51.540;5.854;2023-01-20T15:37:43;6.13;;;3.50;;
75035;SDS011;64247;51.540;5.854;2023-01-20T15:39:45;4.82;;;2.95;;
75035;SDS011;64247;51.540;5.854;2023-01-20T15:41:46;5.57;;;3.45;;
75035;SDS011;64247;51.540;5.854;2023-01-20T15:43:53;5.95;;;3.95;;
75035;SDS011;64247;51.540;5.854;2023-01-20T15:47:54;5.35;;;3.53;;
75035;SDS011;64247;51.540;5.854;2023-01-20T15:49:57;3.10;;;2.03;;
75035;SDS011;64247;51.540;5.854;2023-01-20T15:51:58;4.78;;;2.92;;
75035;SDS011;64247;51.540;5.854;2023-01-20T15:56:00;3.05;;;1.52;;
75035;SDS011;64247;51.540;5.854;2023-01-20T15:58:01;3.67;;;2.55;;
75035;SDS011;64247;51.540;5.854;2023-01-20T16:00:14;4.70;;;2.50;;
75035;SDS011;64247;51.540;5.854;2023-01-20T16:02:23;2.72;;;2.28;;
75035;SDS011;64247;51.540;5.854;2023-01-20T16:04:24;4.05;;;2.63;;
75035;SDS011;64247;51.540;5.854;2023-01-20T16:06:29;2.08;;;1.60;;
75035;SDS011;64247;51.540;5.854;2023-01-20T16:08:34;3.58;;;2.75;;
75035;SDS011;64247;51.540;5.854;2023-01-20T16:10:37;4.20;;;2.45;;
75035;SDS011;64247;51.540;5.854;2023-01-20T16:15:30;3.22;;;2.92;;
75035;SDS011;64247;51.540;5.854;2023-01-20T16:19:32;3.85;;;2.60;;
75035;SDS011;64247;51.540;5.854;2023-01-20T16:21:35;3.50;;;2.88;;
75035;SDS011;64247;51.540;5.854;2023-01-20T16:23:37;4.45;;;3.15;;
75035;SDS011;64247;51.540;5.854;2023-01-20T16:25:38;5.30;;;3.20;;
75035;SDS011;64247;51.540;5.854;2023-01-20T16:27:39;7.22;;;4.50;;
75035;SDS011;64247;51.540;5.854;2023-01-20T16:31:41;7.53;;;4.50;;
75035;SDS011;64247;51.540;5.854;2023-01-20T16:35:42;4.60;;;3.08;;
75035;SDS011;64247;51.540;5.854;2023-01-20T16:37:44;8.27;;;4.32;;
75035;SDS011;64247;51.540;5.854;2023-01-20T16:39:46;4.00;;;2.78;;
75035;SDS011;64247;51.540;5.854;2023-01-20T16:43:49;7.78;;;4.25;;
75035;SDS011;64247;51.540;5.854;2023-01-20T16:45:52;6.43;;;3.78;;